Time;durP1;ratioP1;P1;durP2;ratioP2;P2;SDS_P1;SDS_P2;PMS_P1;PMS_P2;Temp;Humidity;BMP_temperature;BMP_pressure;BME280_temperature;BME280_humidity;BME280_pressure;Samples;Min_cycle;Max_cycle;Signal;HPM_P1;HPM_P2
2021/10/20 00:00:36;;;;;;;2.15;1.52;;;;;;;26.38;37.32;96879.78;5062129;28;20024;-31
2021/10/20 00:03:02;;;;;;;1.88;1.42;;;;;;;26.37;37.29;96882.50;5077298;28;20062;-32
2021/10/20 00:05:27;;;;;;;1.55;1.33;;;;;;;26.37;37.23;96879.88;5044969;28;20031;-33
2021/10/20 00:07:53;;;;;;;3.08;1.70;;;;;;;26.37;37.33;96879.88;5059462;28;20133;-32
2021/10/20 00:10:19;;;;;;;3.17;1.48;;;;;;;26.38;37.16;96873.72;5066695;28;20039;-32
2021/10/20 00:12:46;;;;;;;2.08;1.60;;;;;;;26.36;37.22;96871.16;5053371;28;20047;-33
2021/10/20 00:15:13;;;;;;;5.53;1.30;;;;;;;26.36;37.31;96871.16;5069404;28;20131;-33
2021/10/20 00:17:38;;;;;;;2.25;1.20;;;;;;;26.35;37.25;96867.66;5061940;28;20032;-30
2021/10/20 00:20:07;;;;;;;2.30;1.70;;;;;;;26.35;37.21;96862.41;5057702;28;20024;-34
2021/10/20 00:22:34;;;;;;;1.30;1.13;;;;;;;26.35;37.20;96865.03;5057968;28;20184;-36
2021/10/20 00:24:59;;;;;;;2.75;1.42;;;;;;;26.35;37.24;96866.81;5053653;28;20362;-34
2021/10/20 00:27:24;;;;;;;3.72;1.60;;;;;;;26.35;37.16;96854.53;5037162;28;20042;-33
2021/10/20 00:29:50;;;;;;;1.92;1.30;;;;;;;26.35;37.17;96851.91;5059959;28;20032;-32
2021/10/20 00:32:15;;;;;;;2.50;1.65;;;;;;;26.35;37.15;96866.81;5054232;28;20024;-32
2021/10/20 00:34:41;;;;;;;1.90;1.35;;;;;;;26.34;37.21;96855.47;5056202;28;20036;-38
2021/10/20 00:37:06;;;;;;;1.98;1.30;;;;;;;26.32;37.21;96848.63;5054673;28;20114;-32
2021/10/20 00:39:31;;;;;;;1.80;1.30;;;;;;;26.33;37.24;96859.03;5070443;27;20039;-35
2021/10/20 00:41:57;;;;;;;1.80;1.30;;;;;;;26.33;37.14;96848.53;5047760;28;20461;-34
2021/10/20 00:44:22;;;;;;;2.08;1.42;;;;;;;26.32;37.16;96857.31;5048151;28;20027;-33
2021/10/20 00:46:49;;;;;;;3.15;1.17;;;;;;;26.32;37.16;96848.63;5059078;28;20043;-33
2021/10/20 00:49:15;;;;;;;1.73;1.42;;;;;;;26.32;37.23;96846.81;5057089;28;20161;-30
2021/10/20 00:51:40;;;;;;;1.98;1.50;;;;;;;26.32;37.04;96840.72;5055170;28;20954;-30
2021/10/20 00:54:06;;;;;;;2.25;1.27;;;;;;;26.32;37.05;96845.97;5044270;28;20502;-32
2021/10/20 00:56:31;;;;;;;1.77;1.52;;;;;;;26.32;37.05;96838.09;5057117;28;20085;-34
2021/10/20 00:58:57;;;;;;;2.00;1.48;;;;;;;26.32;37.27;96833.69;5052683;28;20033;-35
2021/10/20 01:01:22;;;;;;;3.83;1.30;;;;;;;26.31;37.11;96832.00;5056152;28;20039;-31
2021/10/20 01:03:47;;;;;;;2.80;1.55;;;;;;;26.31;37.11;96834.63;5055690;28;20031;-36
2021/10/20 01:06:13;;;;;;;2.05;1.55;;;;;;;26.31;37.05;96821.47;5074182;28;20028;-31
2021/10/20 01:08:39;;;;;;;2.40;1.25;;;;;;;26.29;37.08;96810.22;5060268;28;20600;-31
2021/10/20 01:11:04;;;;;;;1.98;1.30;;;;;;;26.31;37.07;96813.59;5030707;28;20115;-33
2021/10/20 01:13:30;;;;;;;3.30;1.40;;;;;;;26.31;37.04;96808.34;5047461;28;20035;-31
2021/10/20 01:15:55;;;;;;;2.45;1.63;;;;;;;26.31;37.11;96804.91;5050675;28;20039;-30
2021/10/20 01:18:21;;;;;;;1.67;1.05;;;;;;;26.30;37.04;96798.78;5053152;28;20024;-34
2021/10/20 01:20:46;;;;;;;1.70;1.10;;;;;;;26.30;36.94;96801.41;5060791;28;20031;-33
2021/10/20 01:23:11;;;;;;;2.13;1.30;;;;;;;26.29;36.91;96791.84;5076155;28;20037;-33
2021/10/20 01:25:37;;;;;;;1.90;1.40;;;;;;;26.29;37.00;96780.47;5053970;28;20036;-30
2021/10/20 01:28:02;;;;;;;1.40;1.20;;;;;;;26.29;36.98;96783.97;5057726;28;20031;-31
2021/10/20 01:30:28;;;;;;;1.65;1.23;;;;;;;26.29;37.12;96778.69;5055721;28;20589;-34
2021/10/20 01:32:53;;;;;;;3.03;1.50;;;;;;;26.28;37.02;96766.47;5055181;28;20035;-30
2021/10/20 01:35:18;;;;;;;1.98;1.40;;;;;;;26.28;36.95;96761.22;5055960;28;20024;-31
2021/10/20 01:37:44;;;;;;;2.47;1.45;;;;;;;26.27;37.06;96764.78;5057760;28;20017;-30
2021/10/20 01:40:10;;;;;;;1.77;1.40;;;;;;;26.26;36.97;96760.47;5054667;28;20534;-33
2021/10/20 01:42:36;;;;;;;1.63;1.00;;;;;;;26.26;36.96;96757.84;5056995;28;20062;-29
2021/10/20 01:45:01;;;;;;;1.35;1.25;;;;;;;26.27;36.88;96758.72;5057479;28;20506;-32
2021/10/20 01:47:26;;;;;;;1.52;1.30;;;;;;;26.26;36.96;96752.59;5071182;28;20043;-35
2021/10/20 01:49:53;;;;;;;2.05;1.30;;;;;;;26.26;37.04;96747.34;5058623;28;20050;-30
2021/10/20 01:52:19;;;;;;;2.35;1.50;;;;;;;26.25;36.98;96750.88;5058449;28;20553;-33
2021/10/20 01:54:45;;;;;;;2.78;1.30;;;;;;;26.27;36.92;96733.25;5060102;28;20069;-35
2021/10/20 01:57:10;;;;;;;1.77;1.45;;;;;;;26.26;36.95;96731.56;5049230;28;20024;-31
2021/10/20 01:59:36;;;;;;;1.98;1.38;;;;;;;26.26;36.96;96736.84;5063207;28;20021;-32
2021/10/20 02:02:01;;;;;;;2.00;1.38;;;;;;;26.27;36.85;96735.06;5044976;28;20139;-34
2021/10/20 02:04:26;;;;;;;1.63;1.25;;;;;;;26.26;36.92;96726.31;5046826;28;20036;-36
2021/10/20 02:06:52;;;;;;;1.77;1.38;;;;;;;26.27;37.02;96728.00;5061182;28;20117;-33
2021/10/20 02:09:17;;;;;;;1.90;1.38;;;;;;;26.26;36.98;96715.81;5058679;28;20035;-34
2021/10/20 02:11:44;;;;;;;1.50;1.30;;;;;;;26.26;36.99;96721.06;5061110;28;20024;-30
2021/10/20 02:14:10;;;;;;;1.23;1.00;;;;;;;26.26;36.76;96710.56;5035807;28;20738;-33
2021/10/20 02:16:36;;;;;;;1.90;1.30;;;;;;;26.25;36.90;96708.84;5054335;28;20037;-33
2021/10/20 02:19:01;;;;;;;2.08;1.38;;;;;;;26.25;36.88;96706.22;5057929;28;20024;-33
2021/10/20 02:21:26;;;;;;;1.90;1.27;;;;;;;26.21;36.90;96696.81;5062422;28;20059;-30
2021/10/20 02:23:52;;;;;;;2.05;1.10;;;;;;;26.25;36.78;96708.84;5044554;28;20032;-32
2021/10/20 02:26:17;;;;;;;1.75;0.93;;;;;;;26.25;36.86;96700.09;5058729;28;20032;-32
2021/10/20 02:28:43;;;;;;;2.10;1.20;;;;;;;26.25;36.90;96694.84;5055101;28;20082;-31
2021/10/20 02:31:08;;;;;;;2.40;1.50;;;;;;;26.25;36.77;96708.00;5052800;28;20032;-35
2021/10/20 02:33:33;;;;;;;1.92;1.42;;;;;;;26.24;36.76;96701.91;5037119;28;20082;-33
2021/10/20 02:35:59;;;;;;;2.65;1.67;;;;;;;26.23;36.89;96695.78;5051899;28;20317;-31
2021/10/20 02:38:24;;;;;;;1.50;1.17;;;;;;;26.23;36.92;96690.53;5041323;28;20024;-33
2021/10/20 02:40:50;;;;;;;1.70;1.23;;;;;;;26.23;36.87;96687.91;5046148;28;20453;-30
2021/10/20 02:43:16;;;;;;;1.42;1.10;;;;;;;26.20;36.92;96680.19;5066651;28;20021;-33
2021/10/20 02:45:41;;;;;;;2.20;1.10;;;;;;;26.25;36.74;96686.97;5055035;28;20037;-31
2021/10/20 02:48:07;;;;;;;3.00;1.40;;;;;;;26.23;36.88;96689.69;5058937;28;20032;-32
2021/10/20 02:50:32;;;;;;;1.90;1.38;;;;;;;26.23;36.75;96685.28;5056957;28;20505;-31
2021/10/20 02:52:57;;;;;;;1.83;1.42;;;;;;;26.24;36.88;96680.88;5061496;28;20566;-32
2021/10/20 02:55:23;;;;;;;1.50;1.10;;;;;;;26.23;36.89;96679.19;5059133;28;20025;-32
2021/10/20 02:57:49;;;;;;;1.33;1.17;;;;;;;26.23;36.86;96680.03;5052245;28;20107;-35
2021/10/20 03:00:14;;;;;;;1.55;1.17;;;;;;;26.23;36.70;96676.56;5057813;28;20042;-32
2021/10/20 03:02:40;;;;;;;1.80;1.30;;;;;;;26.22;36.81;96672.22;5063496;28;20032;-35
2021/10/20 03:05:06;;;;;;;1.60;1.20;;;;;;;26.21;36.76;96675.81;5054166;28;20024;-31
2021/10/20 03:07:32;;;;;;;2.03;1.48;;;;;;;26.22;36.79;96672.22;5056932;28;20398;-31
2021/10/20 03:09:58;;;;;;;1.73;1.25;;;;;;;26.21;36.87;96662.66;5061940;28;20038;-29
2021/10/20 03:12:23;;;;;;;1.48;1.00;;;;;;;26.21;36.75;96660.03;5063956;28;20494;-30
2021/10/20 03:14:48;;;;;;;1.60;1.10;;;;;;;26.21;36.71;96665.28;5048810;28;20032;-33
2021/10/20 03:17:16;;;;;;;1.55;1.27;;;;;;;26.20;36.88;96661.81;5058576;28;20024;-30
2021/10/20 03:19:41;;;;;;;1.52;1.10;;;;;;;26.21;36.91;96654.78;5042537;28;20032;-31
2021/10/20 03:22:07;;;;;;;1.63;1.30;;;;;;;26.20;36.83;96651.31;5056731;28;20039;-31
2021/10/20 03:24:34;;;;;;;1.77;1.20;;;;;;;26.21;36.68;96649.53;5059363;28;20067;-35
2021/10/20 03:26:59;;;;;;;1.70;1.30;;;;;;;26.20;36.92;96647.84;5060364;28;20994;-30
2021/10/20 03:29:25;;;;;;;1.88;1.33;;;;;;;26.19;36.80;96646.13;5050135;28;20032;-33
2021/10/20 03:31:50;;;;;;;8.50;2.50;;;;;;;26.20;36.73;96637.34;5059864;28;20028;-33
2021/10/20 03:34:16;;;;;;;1.77;1.60;;;;;;;26.20;36.51;96632.09;5055434;28;20024;-30
2021/10/20 03:36:41;;;;;;;1.80;1.30;;;;;;;26.20;36.71;96621.59;5062277;28;20106;-34
2021/10/20 03:39:06;;;;;;;4.13;1.65;;;;;;;26.20;36.73;96626.84;5064739;28;20027;-32
2021/10/20 03:41:32;;;;;;;1.90;1.50;;;;;;;26.18;36.79;96626.06;5062455;28;20683;-34
2021/10/20 03:43:57;;;;;;;1.98;1.40;;;;;;;26.19;36.90;96622.50;5059899;28;20028;-33
2021/10/20 03:46:22;;;;;;;3.28;1.23;;;;;;;26.18;36.84;96619.03;5058553;28;20028;-33
2021/10/20 03:48:48;;;;;;;1.73;1.23;;;;;;;26.19;36.70;96617.25;5052444;28;20063;-33
2021/10/20 03:51:13;;;;;;;4.00;1.10;;;;;;;26.18;36.89;96610.31;5060191;28;20035;-30
2021/10/20 03:53:39;;;;;;;3.70;1.20;;;;;;;26.17;36.81;96620.00;5062165;28;20036;-29
2021/10/20 03:56:04;;;;;;;1.52;1.25;;;;;;;26.17;36.80;96613.88;5063379;28;20028;-30
2021/10/20 03:58:29;;;;;;;2.72;1.65;;;;;;;26.19;36.91;96614.63;5059308;28;20028;-30
2021/10/20 04:00:57;;;;;;;2.80;1.40;;;;;;;26.18;36.79;96612.94;5065292;28;20510;-32
2021/10/20 04:03:22;;;;;;;3.30;1.38;;;;;;;26.18;36.84;96612.94;5061375;28;20043;-30
2021/10/20 04:05:48;;;;;;;3.67;1.25;;;;;;;26.17;36.83;96612.09;5065220;28;20024;-34
2021/10/20 04:08:13;;;;;;;1.08;0.98;;;;;;;26.17;36.78;96609.47;5063413;28;20432;-31
2021/10/20 04:10:38;;;;;;;1.30;1.10;;;;;;;26.17;36.71;96606.84;5062575;28;20036;-33
2021/10/20 04:13:04;;;;;;;1.75;1.05;;;;;;;26.16;36.70;96599.88;5056057;28;20031;-33
2021/10/20 04:15:29;;;;;;;1.23;1.02;;;;;;;26.17;36.89;96617.34;5073712;28;20435;-32
2021/10/20 04:17:55;;;;;;;4.03;1.17;;;;;;;26.17;36.78;96606.00;5061315;28;21052;-35
2021/10/20 04:20:21;;;;;;;3.60;1.40;;;;;;;26.16;36.80;96609.56;5059607;28;20097;-31
2021/10/20 04:22:48;;;;;;;2.22;1.33;;;;;;;26.16;36.67;96604.31;5058878;28;20509;-32
2021/10/20 04:25:13;;;;;;;1.63;1.25;;;;;;;26.16;36.61;96605.13;5054919;28;20129;-34
2021/10/20 04:27:41;;;;;;;2.15;1.38;;;;;;;26.16;36.69;96607.75;5059741;28;20486;-33
2021/10/20 04:30:07;;;;;;;1.92;1.40;;;;;;;26.17;36.83;96611.25;5062348;28;20035;-34
2021/10/20 04:32:33;;;;;;;1.85;1.05;;;;;;;26.17;36.75;96611.25;5063728;28;20041;-33
2021/10/20 04:35:00;;;;;;;3.60;1.40;;;;;;;26.16;36.77;96599.06;5061039;28;20043;-32
2021/10/20 04:37:26;;;;;;;1.75;1.08;;;;;;;26.17;36.81;96608.63;5060820;28;20032;-32
2021/10/20 04:39:53;;;;;;;2.00;1.33;;;;;;;26.17;36.83;96600.75;5059722;28;20067;-33
2021/10/20 04:42:19;;;;;;;4.70;1.38;;;;;;;26.16;36.91;96596.44;5053443;28;20032;-32
2021/10/20 04:44:44;;;;;;;1.40;1.00;;;;;;;26.15;36.71;96598.19;5045778;28;22277;-30
2021/10/20 04:47:10;;;;;;;1.85;1.10;;;;;;;26.17;36.80;96606.00;5049466;28;20111;-30
2021/10/20 04:49:35;;;;;;;1.40;1.30;;;;;;;26.15;36.78;96594.72;5057685;28;20041;-32
2021/10/20 04:52:01;;;;;;;1.38;1.25;;;;;;;26.15;36.83;96589.47;5048901;28;20025;-34
2021/10/20 04:54:26;;;;;;;1.42;1.30;;;;;;;26.15;36.72;96581.59;5047555;28;20094;-33
2021/10/20 04:56:51;;;;;;;1.08;1.00;;;;;;;26.15;36.72;96584.22;5046203;28;20032;-32
2021/10/20 04:59:17;;;;;;;1.60;1.30;;;;;;;26.14;36.61;96575.50;5046253;28;20051;-33
2021/10/20 05:01:42;;;;;;;2.60;1.33;;;;;;;26.14;36.70;96580.75;5047761;28;20032;-34
2021/10/20 05:04:07;;;;;;;5.50;2.05;;;;;;;26.15;36.60;96576.34;5063596;28;20037;-33
2021/10/20 05:06:33;;;;;;;2.03;1.70;;;;;;;26.15;36.64;96571.09;5049542;28;20587;-31
2021/10/20 05:08:58;;;;;;;4.07;1.40;;;;;;;26.14;36.78;96564.16;5046210;28;20033;-31
2021/10/20 05:11:24;;;;;;;1.10;1.00;;;;;;;26.14;36.66;96558.91;5044808;28;20023;-30
2021/10/20 05:13:49;;;;;;;1.50;1.05;;;;;;;26.13;36.76;96558.06;5046713;28;20043;-35
2021/10/20 05:16:14;;;;;;;1.20;1.10;;;;;;;26.14;36.73;96558.91;5048453;28;20476;-32
2021/10/20 05:18:40;;;;;;;1.75;1.10;;;;;;;26.10;36.75;96548.56;5045499;28;20043;-31
2021/10/20 05:21:05;;;;;;;2.67;1.10;;;;;;;26.13;36.80;96554.59;5044896;28;20103;-32
2021/10/20 05:23:31;;;;;;;1.60;1.20;;;;;;;26.12;36.77;96571.28;5045121;28;20027;-31
2021/10/20 05:25:56;;;;;;;1.40;1.27;;;;;;;26.13;36.78;96571.19;5059187;28;20036;-29
2021/10/20 05:28:21;;;;;;;1.90;1.40;;;;;;;26.13;36.73;96567.72;5054993;28;22033;-33
2021/10/20 05:30:47;;;;;;;3.28;1.30;;;;;;;26.12;36.78;96561.59;5060593;28;20037;-31
2021/10/20 05:33:12;;;;;;;1.83;1.20;;;;;;;26.12;36.63;96556.34;5054029;28;20029;-31
2021/10/20 05:35:38;;;;;;;1.80;1.35;;;;;;;26.12;36.68;96550.28;5055247;28;20024;-34
2021/10/20 05:38:03;;;;;;;1.23;1.13;;;;;;;26.12;36.71;96558.16;5055056;28;20024;-28
2021/10/20 05:40:28;;;;;;;5.40;1.63;;;;;;;26.12;36.70;96551.09;5061704;28;20047;-32
2021/10/20 05:42:54;;;;;;;7.97;2.00;;;;;;;26.12;36.55;96547.66;5056660;28;20055;-32
2021/10/20 05:45:19;;;;;;;6.57;1.88;;;;;;;26.10;36.53;96547.72;5050596;28;20024;-30
2021/10/20 05:47:45;;;;;;;9.27;2.60;;;;;;;26.10;36.72;96551.19;5052295;28;20060;-30
2021/10/20 05:50:10;;;;;;;8.48;2.10;;;;;;;26.08;36.58;96555.69;5051569;28;20093;-32
2021/10/20 05:52:36;;;;;;;4.47;2.22;;;;;;;26.09;36.61;96557.38;5061856;28;20039;-32
2021/10/20 05:55:01;;;;;;;5.00;2.28;;;;;;;26.07;36.38;96554.00;5063802;28;20028;-28
2021/10/20 05:57:28;;;;;;;4.07;2.45;;;;;;;26.07;36.46;96553.16;5063749;28;20461;-33
2021/10/20 05:59:53;;;;;;;3.80;2.10;;;;;;;26.06;36.33;96552.31;5063108;28;20048;-31
2021/10/20 06:02:19;;;;;;;3.60;1.95;;;;;;;26.06;36.44;96549.69;5063930;28;20021;-32
2021/10/20 06:04:44;;;;;;;3.38;2.30;;;;;;;26.06;36.43;96551.47;5063595;28;20397;-33
2021/10/20 06:07:10;;;;;;;4.95;2.20;;;;;;;26.05;36.47;96545.34;5036717;28;20057;-30
2021/10/20 06:09:36;;;;;;;7.57;2.40;;;;;;;26.06;36.53;96546.22;5040368;28;20029;-32
2021/10/20 06:12:02;;;;;;;4.43;2.25;;;;;;;26.06;36.50;96541.81;5041871;28;20094;-30
2021/10/20 06:14:28;;;;;;;8.20;2.28;;;;;;;26.07;36.50;96547.91;5043668;28;20135;-36
2021/10/20 06:16:53;;;;;;;5.68;2.63;;;;;;;26.06;36.63;96547.06;5037791;28;20020;-29
2021/10/20 06:19:19;;;;;;;4.72;1.92;;;;;;;26.08;36.56;96554.84;5043441;28;20547;-32
2021/10/20 06:21:44;;;;;;;9.73;2.53;;;;;;;26.07;36.41;96554.00;5038954;28;20033;-34
2021/10/20 06:24:10;;;;;;;3.15;1.98;;;;;;;26.08;36.49;96550.44;5042851;28;20149;-30
2021/10/20 06:26:35;;;;;;;6.63;2.20;;;;;;;26.09;36.59;96546.03;5039660;28;20033;-31
2021/10/20 06:29:01;;;;;;;6.47;2.90;;;;;;;26.10;36.56;96547.72;5041417;28;20495;-33
2021/10/20 06:31:26;;;;;;;7.70;3.00;;;;;;;26.10;36.39;96553.81;5041533;28;20559;-33
2021/10/20 06:33:51;;;;;;;10.20;3.40;;;;;;;26.10;36.46;96559.06;5039301;28;20083;-34
2021/10/20 06:36:20;;;;;;;10.93;3.72;;;;;;;26.10;36.18;96559.06;5041169;28;20029;-31
2021/10/20 06:38:45;;;;;;;9.75;3.60;;;;;;;26.10;36.20;96564.31;5040734;28;20025;-31
2021/10/20 06:41:11;;;;;;;16.85;4.60;;;;;;;26.12;36.15;96561.59;5039993;28;20029;-33
2021/10/20 06:43:36;;;;;;;15.38;4.25;;;;;;;26.13;36.13;96557.22;5039626;28;20256;-26
2021/10/20 06:46:02;;;;;;;10.90;3.83;;;;;;;26.12;36.19;96550.28;5037751;28;20036;-30
2021/10/20 06:48:28;;;;;;;13.30;3.85;;;;;;;26.12;36.27;96547.66;5039391;28;20285;-30
2021/10/20 06:50:53;;;;;;;15.45;4.38;;;;;;;26.12;36.17;96551.09;5037963;28;20036;-33
2021/10/20 06:53:18;;;;;;;12.30;3.75;;;;;;;26.13;36.36;96558.06;5036075;28;20028;-32
2021/10/20 06:55:45;;;;;;;14.15;4.47;;;;;;;26.14;36.41;96553.63;5045690;28;20423;-31
2021/10/20 06:58:11;;;;;;;14.15;4.28;;;;;;;26.15;36.49;96544.81;5035812;28;20047;-33
2021/10/20 07:00:36;;;;;;;13.55;4.20;;;;;;;26.16;36.64;96546.53;5040623;28;20163;-29
2021/10/20 07:03:01;;;;;;;15.63;4.82;;;;;;;26.17;36.39;96535.94;5039294;28;20029;-31
2021/10/20 07:05:27;;;;;;;11.43;4.32;;;;;;;26.19;36.54;96533.19;5037609;28;20081;-33
2021/10/20 07:07:52;;;;;;;12.10;4.20;;;;;;;26.19;36.54;96530.56;5037766;28;20417;-32
2021/10/20 07:10:18;;;;;;;12.25;4.38;;;;;;;26.19;36.38;96522.69;5036710;28;20033;-33
2021/10/20 07:12:43;;;;;;;15.30;4.45;;;;;;;26.20;36.45;96519.97;5033763;28;20033;-31
2021/10/20 07:15:09;;;;;;;16.35;4.80;;;;;;;26.21;36.48;96528.72;5033591;28;20025;-29
2021/10/20 07:17:34;;;;;;;12.77;4.55;;;;;;;26.22;36.41;96525.16;5037487;28;20131;-30
2021/10/20 07:20:00;;;;;;;12.50;4.65;;;;;;;26.23;36.53;96521.56;5037771;28;20040;-35
2021/10/20 07:22:27;;;;;;;17.25;4.70;;;;;;;26.24;36.53;96528.53;5037888;28;20033;-32
2021/10/20 07:24:52;;;;;;;12.13;4.32;;;;;;;26.24;36.51;96528.53;5036736;28;20611;-31
2021/10/20 07:27:18;;;;;;;11.68;4.30;;;;;;;26.24;36.45;96525.91;5054540;28;20080;-29
2021/10/20 07:29:46;;;;;;;12.73;4.15;;;;;;;26.27;36.29;96528.38;5036787;28;20033;-33
2021/10/20 07:32:12;;;;;;;12.57;4.72;;;;;;;26.28;36.40;96523.97;5039620;28;20032;-33
2021/10/20 07:34:38;;;;;;;11.80;4.32;;;;;;;26.27;36.34;96517.88;5042374;28;20021;-32
2021/10/20 07:37:03;;;;;;;10.98;4.03;;;;;;;26.28;36.29;96518.72;5032661;28;20086;-30
2021/10/20 07:39:28;;;;;;;10.80;3.60;;;;;;;26.29;36.39;96521.25;5035433;28;20083;-29
2021/10/20 07:41:54;;;;;;;8.73;3.22;;;;;;;26.29;34.55;96510.75;5035996;28;20415;-32
2021/10/20 07:44:19;;;;;;;10.30;3.58;;;;;;;26.27;33.75;96502.09;5038400;28;20785;-33
2021/10/20 07:46:45;;;;;;;9.73;3.90;;;;;;;26.24;31.92;96497.03;5032265;28;20063;-32
2021/10/20 07:49:10;;;;;;;5.30;3.03;;;;;;;26.17;31.36;96495.69;5036832;28;21123;-35
2021/10/20 07:51:36;;;;;;;8.05;3.50;;;;;;;26.08;30.58;96490.03;5040158;28;20028;-32
2021/10/20 07:54:01;;;;;;;5.45;3.20;;;;;;;25.97;29.93;96479.31;5046512;28;20028;-33
2021/10/20 07:56:32;;;;;;;7.10;3.53;;;;;;;25.87;29.30;96472.94;5043211;28;20039;-30
2021/10/20 07:58:59;;;;;;;6.03;3.22;;;;;;;25.78;29.74;96476.94;5042151;28;20085;-32
2021/10/20 08:01:24;;;;;;;9.10;3.00;;;;;;;25.72;30.28;96475.53;5043835;28;20029;-31
2021/10/20 08:03:50;;;;;;;10.82;3.17;;;;;;;25.69;30.75;96476.53;5043314;28;20028;-28
2021/10/20 08:06:17;;;;;;;7.47;3.15;;;;;;;25.69;31.20;96466.03;5043852;28;20485;-32
2021/10/20 08:08:42;;;;;;;6.80;3.00;;;;;;;25.70;31.63;96474.75;5043939;28;20056;-27
2021/10/20 08:11:07;;;;;;;6.88;2.72;;;;;;;25.71;31.91;96468.59;5046842;28;20039;-30
2021/10/20 08:13:33;;;;;;;4.25;2.60;;;;;;;25.74;32.17;96463.13;5042320;28;20029;-31
2021/10/20 08:15:58;;;;;;;4.60;2.70;;;;;;;25.75;32.56;96459.59;5046051;28;20495;-32
2021/10/20 08:18:24;;;;;;;7.65;2.90;;;;;;;25.78;32.62;96459.41;5042193;28;20036;-29
2021/10/20 08:20:50;;;;;;;6.90;2.75;;;;;;;25.81;32.66;96461.84;5044552;28;20086;-32
2021/10/20 08:23:15;;;;;;;4.57;2.90;;;;;;;25.84;32.67;96447.69;5044853;28;20036;-32
2021/10/20 08:25:41;;;;;;;6.68;2.90;;;;;;;25.87;32.88;96446.69;5046936;28;20031;-29
2021/10/20 08:28:06;;;;;;;5.75;2.90;;;;;;;25.89;32.98;96448.28;5041763;28;20047;-32
2021/10/20 08:30:34;;;;;;;6.13;3.10;;;;;;;25.91;33.04;96443.78;5043754;28;20513;-26
2021/10/20 08:32:59;;;;;;;5.63;3.28;;;;;;;25.94;33.19;96448.84;5042266;28;20783;-28
2021/10/20 08:35:25;;;;;;;5.85;2.97;;;;;;;25.97;33.24;96442.56;5042269;28;20025;-33
2021/10/20 08:37:55;;;;;;;4.80;2.90;;;;;;;26.00;33.28;96447.63;5060459;28;20025;-33
2021/10/20 08:40:23;;;;;;;6.88;3.17;;;;;;;26.01;33.29;96441.44;5043203;28;20730;-32
2021/10/20 08:42:48;;;;;;;4.93;3.00;;;;;;;26.04;33.37;96445.66;5043953;28;20036;-30
2021/10/20 08:45:14;;;;;;;5.20;2.92;;;;;;;26.06;33.36;96457.78;5059466;28;20025;-32
2021/10/20 08:47:39;;;;;;;5.75;3.03;;;;;;;26.07;33.45;96442.88;5045381;28;20548;-34
2021/10/20 08:50:06;;;;;;;8.32;2.88;;;;;;;26.09;33.50;96452.34;5041565;28;20612;-31
2021/10/20 08:52:32;;;;;;;7.65;2.88;;;;;;;26.12;33.58;96442.59;5044354;28;20554;-34
2021/10/20 08:54:58;;;;;;;3.83;2.88;;;;;;;26.13;33.56;96444.28;5060141;28;20036;-29
2021/10/20 08:57:24;;;;;;;6.07;3.08;;;;;;;26.15;33.75;96439.78;5050762;28;20101;-33
2021/10/20 08:59:49;;;;;;;6.53;2.97;;;;;;;26.16;33.65;96434.44;5041647;28;20527;-32
2021/10/20 09:02:14;;;;;;;5.85;2.72;;;;;;;26.17;33.78;96448.41;5041714;28;20024;-28
2021/10/20 09:04:40;;;;;;;4.82;2.58;;;;;;;26.18;33.97;96439.59;5045588;28;20090;-33
2021/10/20 09:07:14;;;;;;;4.35;2.65;;;;;;;26.20;33.98;96432.47;5058086;28;20123;-31
2021/10/20 09:09:40;;;;;;;5.20;2.63;;;;;;;26.21;33.98;96428.91;5056916;28;20039;-32
2021/10/20 09:12:05;;;;;;;6.30;3.00;;;;;;;26.21;34.02;96429.75;5043218;28;20028;-32
2021/10/20 09:14:31;;;;;;;5.60;2.92;;;;;;;26.23;34.08;96434.91;5040709;28;20738;-33
2021/10/20 09:16:56;;;;;;;3.53;2.42;;;;;;;26.25;34.11;96429.56;5042886;28;20032;-30
2021/10/20 09:19:32;;;;;;;3.55;2.42;;;;;;;26.27;34.04;96417.22;5041101;28;20028;-32
2021/10/20 09:22:04;;;;;;;4.60;2.53;;;;;;;26.28;34.12;96413.66;5044787;28;20721;-31
2021/10/20 09:24:38;;;;;;;10.00;2.90;;;;;;;26.29;34.24;96425.84;5046072;28;20089;-31
2021/10/20 09:27:04;;;;;;;4.68;2.47;;;;;;;26.30;34.31;96403.88;5039505;28;20033;-32
2021/10/20 09:29:31;;;;;;;3.53;2.38;;;;;;;26.30;34.22;96402.13;5042782;28;20398;-32
2021/10/20 09:31:57;;;;;;;3.90;2.53;;;;;;;26.31;34.37;96389.84;5046203;28;20032;-29
2021/10/20 09:34:32;;;;;;;4.30;2.35;;;;;;;26.32;34.22;96381.00;5045353;28;20476;-31
2021/10/20 09:36:59;;;;;;;3.60;2.50;;;;;;;26.34;34.32;96393.09;5041362;28;20121;-32
2021/10/20 09:39:24;;;;;;;4.22;2.17;;;;;;;26.34;34.27;96389.63;5057824;28;20495;-28
2021/10/20 09:41:54;;;;;;;4.25;2.30;;;;;;;26.34;34.37;96393.09;5043365;28;20033;-28
2021/10/20 09:44:19;;;;;;;11.50;2.50;;;;;;;26.36;34.51;96393.03;5039456;28;20503;-35
2021/10/20 09:46:46;;;;;;;3.83;2.40;;;;;;;26.35;34.93;96384.28;5040307;28;20040;-35
2021/10/20 09:49:19;;;;;;;3.70;2.17;;;;;;;26.35;35.23;96384.28;5042885;28;20503;-33
2021/10/20 09:51:45;;;;;;;3.42;2.08;;;;;;;26.37;35.34;96389.44;5045428;28;20056;-31
2021/10/20 09:54:29;;;;;;;3.08;2.30;;;;;;;26.40;35.38;96393.66;5039613;28;20211;-31
2021/10/20 09:56:55;;;;;;;3.05;2.03;;;;;;;26.46;35.26;96385.38;5038328;28;20028;-31
2021/10/20 09:59:21;;;;;;;2.80;1.83;;;;;;;26.53;35.24;96376.19;5042806;28;20020;-32
2021/10/20 10:01:47;;;;;;;4.82;2.17;;;;;;;26.63;35.05;96375.59;5041578;28;20039;-32
2021/10/20 10:04:12;;;;;;;3.17;2.03;;;;;;;26.75;34.82;96382.72;5057839;28;20032;-32
2021/10/20 10:06:38;;;;;;;3.00;2.05;;;;;;;26.85;34.71;96375.94;5055855;28;21038;-30
2021/10/20 10:09:06;;;;;;;3.53;2.00;;;;;;;26.96;34.63;96369.19;5042893;28;20087;-30
2021/10/20 10:11:32;;;;;;;4.10;2.00;;;;;;;27.09;34.18;96383.22;5040620;28;20037;-30
2021/10/20 10:14:01;;;;;;;4.50;2.30;;;;;;;27.20;34.19;96379.91;5053506;28;20044;-33
2021/10/20 10:16:27;;;;;;;5.03;2.45;;;;;;;27.28;33.91;96376.75;5043599;28;20039;-30
2021/10/20 10:18:54;;;;;;;2.22;2.00;;;;;;;27.37;33.73;96380.53;5042062;28;20558;-34
2021/10/20 10:21:40;;;;;;;4.05;2.35;;;;;;;27.43;33.69;96368.78;5060064;28;20968;-32
2021/10/20 10:24:16;;;;;;;2.33;1.90;;;;;;;27.48;33.73;96361.41;5042714;28;20529;-32
2021/10/20 10:27:13;;;;;;;3.03;1.98;;;;;;;27.50;33.56;96349.00;5042912;28;20574;-33
2021/10/20 10:29:53;;;;;;;3.35;2.10;;;;;;;27.51;33.51;96361.22;5037382;28;20056;-30
2021/10/20 10:32:19;;;;;;;4.95;2.03;;;;;;;27.51;33.37;96355.94;5043065;28;20039;-32
2021/10/20 10:34:46;;;;;;;2.30;1.70;;;;;;;27.49;33.44;96350.78;5042261;28;20025;-34
2021/10/20 10:37:25;;;;;;;3.13;2.40;;;;;;;27.48;33.36;96346.47;5044595;28;20036;-34
2021/10/20 10:39:51;;;;;;;2.58;1.98;;;;;;;27.47;33.43;96338.69;5043542;28;20661;-31
2021/10/20 10:42:16;;;;;;;6.20;2.42;;;;;;;27.44;33.45;96352.03;5037949;28;20021;-31
2021/10/20 10:44:49;;;;;;;7.50;1.88;;;;;;;27.43;33.66;96345.09;5039487;28;20998;-33
2021/10/20 10:47:23;;;;;;;3.67;2.00;;;;;;;27.39;33.79;96350.56;5038318;28;20028;-30
2021/10/20 10:49:53;;;;;;;4.47;1.90;;;;;;;27.36;33.72;96356.03;5042777;28;20036;-31
2021/10/20 10:52:22;;;;;;;2.75;1.75;;;;;;;27.37;33.13;96352.47;5041708;28;20031;-30
2021/10/20 10:54:53;;;;;;;4.97;2.17;;;;;;;27.38;33.13;96338.34;5040827;28;20393;-32
2021/10/20 10:57:19;;;;;;;1.92;1.67;;;;;;;27.42;32.81;96346.88;5041104;28;20067;-29
2021/10/20 11:00:18;;;;;;;5.30;1.95;;;;;;;27.45;32.41;96343.19;5035144;28;20040;-32
2021/10/20 11:03:00;;;;;;;2.90;1.70;;;;;;;27.54;31.33;96332.06;5041957;28;20071;-32
2021/10/20 11:05:28;;;;;;;3.28;1.90;;;;;;;27.62;30.75;96331.56;5042325;28;20037;-31
2021/10/20 11:08:09;;;;;;;2.40;1.73;;;;;;;27.69;30.92;96332.00;5049016;28;20097;-29
2021/10/20 11:10:36;;;;;;;4.17;2.00;;;;;;;27.76;31.26;96331.47;5033191;28;20067;-30
2021/10/20 11:13:01;;;;;;;4.88;1.98;;;;;;;27.83;30.18;96325.75;5030679;28;20126;-29
2021/10/20 11:15:28;;;;;;;2.78;1.90;;;;;;;27.87;29.41;96317.56;5038858;28;20031;-31
2021/10/20 11:17:53;;;;;;;2.83;1.58;;;;;;;27.90;28.97;96312.09;5036781;28;20517;-32
2021/10/20 11:20:20;;;;;;;3.35;1.80;;;;;;;27.95;28.60;96310.94;5033026;28;20021;-30
2021/10/20 11:22:55;;;;;;;4.50;1.88;;;;;;;27.97;28.56;96311.66;5033917;28;20044;-30
2021/10/20 11:25:21;;;;;;;3.20;1.88;;;;;;;27.99;28.38;96312.41;5053030;28;20490;-34
2021/10/20 11:27:51;;;;;;;3.33;1.85;;;;;;;28.00;28.61;96309.63;5033350;28;20561;-30